Time;durP1;ratioP1;P1;durP2;ratioP2;P2;SDS_P1;SDS_P2;PMS_P1;PMS_P2;Temp;Humidity;BMP_temperature;BMP_pressure;BME280_temperature;BME280_humidity;BME280_pressure;Samples;Min_cycle;Max_cycle;Signal;HPM_P1;HPM_P2
2023/03/20 00:01:14;;;;;;;;;;;;;;;8.61;69.94;101197.30;109014;1253;73785;-80
2023/03/20 00:03:41;;;;;;;;;;;;;;;8.59;69.98;101196.52;108853;1253;124660;-81
2023/03/20 00:06:13;;;;;;;;;;;;;;;8.53;70.04;101186.52;109161;1253;71189;-79
2023/03/20 00:08:40;;;;;;;;;;;;;;;8.52;70.18;101187.17;109000;1253;59866;-80
2023/03/20 00:11:12;;;;;;;;;;;;;;;8.58;70.48;101188.23;109164;1253;60371;-80
2023/03/20 00:13:39;;;;;;;;;;;;;;;8.64;70.72;101198.66;109014;1253;74612;-79
2023/03/20 00:16:06;;;;;;;;;;;;;;;8.68;70.79;101192.50;108930;1253;123897;-80
2023/03/20 00:18:34;;;;;;;;;;;;;;;8.69;70.81;101186.95;109072;1253;72198;-80
2023/03/20 00:21:01;;;;;;;;;;;;;;;8.71;70.92;101182.48;109067;1254;124113;-80
2023/03/20 00:23:28;;;;;;;;;;;;;;;8.70;70.87;101182.61;109026;1254;60111;-81
2023/03/20 00:25:55;;;;;;;;;;;;;;;8.69;70.98;101179.09;109047;1253;73182;-80
2023/03/20 00:28:28;;;;;;;;;;;;;;;8.66;70.99;101180.02;108823;1253;124214;-81
2023/03/20 00:30:55;;;;;;;;;;;;;;;8.63;71.02;101182.88;109140;1253;73848;-80
2023/03/20 00:33:22;;;;;;;;;;;;;;;8.60;71.16;101175.38;109054;1253;124020;-80
2023/03/20 00:35:50;;;;;;;;;;;;;;;8.58;71.31;101174.77;109188;1254;59359;-80
2023/03/20 00:38:16;;;;;;;;;;;;;;;8.56;71.50;101174.56;109190;1253;74715;-80
2023/03/20 00:40:44;;;;;;;;;;;;;;;8.55;71.58;101179.58;109025;1253;123849;-80
2023/03/20 00:43:12;;;;;;;;;;;;;;;8.51;71.62;101174.84;109168;1256;72761;-80
2023/03/20 00:45:39;;;;;;;;;;;;;;;8.50;71.85;101173.23;109029;1253;123935;-80
2023/03/20 00:48:07;;;;;;;;;;;;;;;8.48;71.90;101170.72;109156;1254;59300;-80
2023/03/20 00:50:34;;;;;;;;;;;;;;;8.48;72.06;101174.20;109042;1253;74737;-80
2023/03/20 00:53:01;;;;;;;;;;;;;;;8.46;72.07;101172.05;108923;1253;124380;-81
2023/03/20 00:55:28;;;;;;;;;;;;;;;8.45;72.22;101168.33;109163;1254;72630;-81
2023/03/20 00:57:55;;;;;;;;;;;;;;;8.43;72.25;101162.48;109100;1254;123817;-81
2023/03/20 01:00:26;;;;;;;;;;;;;;;8.42;72.35;101164.17;109187;1253;61260;-86
2023/03/20 01:02:54;;;;;;;;;;;;;;;8.38;72.37;101166.09;108969;1253;123797;-86
2023/03/20 01:05:21;;;;;;;;;;;;;;;8.35;72.49;101161.06;109119;1253;65543;-86
2023/03/20 01:07:49;;;;;;;;;;;;;;;8.34;72.53;101159.63;109278;1254;71087;-85
2023/03/20 01:10:17;;;;;;;;;;;;;;;8.32;72.70;101158.30;109134;1254;124414;-86
2023/03/20 01:12:45;;;;;;;;;;;;;;;8.29;72.80;101156.65;109285;1252;59556;-86
2023/03/20 01:15:16;;;;;;;;;;;;;;;8.30;72.90;101159.66;107747;1254;124815;-83
2023/03/20 01:17:51;;;;;;;;;;;;;;;8.34;72.99;101161.05;107757;1253;65589;-84
2023/03/20 01:20:25;;;;;;;;;;;;;;;8.37;73.09;101156.41;108554;1253;71218;-84
2023/03/20 01:22:52;;;;;;;;;;;;;;;8.38;73.09;101151.58;107702;1254;124875;-84
2023/03/20 01:25:19;;;;;;;;;;;;;;;8.41;73.23;101152.90;107564;1253;61228;-86
2023/03/20 01:27:48;;;;;;;;;;;;;;;8.44;73.18;101154.45;107714;1253;125043;-84
2023/03/20 01:30:16;;;;;;;;;;;;;;;8.46;73.25;101155.75;107752;1253;67301;-84
2023/03/20 01:32:45;;;;;;;;;;;;;;;8.47;73.20;101150.73;107611;1254;124752;-83
2023/03/20 01:35:21;;;;;;;;;;;;;;;8.50;73.33;101151.89;107744;1257;60259;-85
2023/03/20 01:37:50;;;;;;;;;;;;;;;8.52;73.41;101149.20;107878;1254;59374;-84
2023/03/20 01:40:21;;;;;;;;;;;;;;;8.54;73.33;101151.04;107911;1254;124553;-85
2023/03/20 01:42:48;;;;;;;;;;;;;;;8.57;73.37;101151.30;107997;1254;66830;-85
2023/03/20 01:45:15;;;;;;;;;;;;;;;8.59;73.42;101149.63;107940;1253;125478;-80
2023/03/20 01:47:42;;;;;;;;;;;;;;;8.59;73.40;101150.86;107852;1258;60579;-80
2023/03/20 01:50:26;;;;;;;;;;;;;;;8.59;73.30;101150.67;107812;1254;61223;-80
2023/03/20 01:53:13;;;;;;;;;;;;;;;8.61;73.41;101153.02;107698;1254;124871;-80
2023/03/20 01:55:40;;;;;;;;;;;;;;;8.65;73.41;101152.48;107762;1259;66776;-86
2023/03/20 01:58:10;;;;;;;;;;;;;;;8.64;73.41;101148.97;107450;1259;124747;-86
2023/03/20 02:00:37;;;;;;;;;;;;;;;8.67;73.45;101146.27;107333;1254;61323;-86
2023/03/20 02:03:05;;;;;;;;;;;;;;;8.68;73.41;101142.46;107450;1257;61275;-86
2023/03/20 02:05:33;;;;;;;;;;;;;;;8.68;73.39;101138.80;107427;1257;74777;-86
2023/03/20 02:08:23;;;;;;;;;;;;;;;8.68;73.33;101131.62;107313;1256;67143;-86
2023/03/20 02:10:50;;;;;;;;;;;;;;;8.65;73.31;101128.02;107030;1256;124935;-86
2023/03/20 02:13:17;;;;;;;;;;;;;;;8.61;73.27;101125.22;107531;1256;61227;-86
2023/03/20 02:16:02;;;;;;;;;;;;;;;8.56;73.31;101126.08;107597;1256;124699;-86
2023/03/20 02:18:30;;;;;;;;;;;;;;;8.52;73.27;101121.73;107710;1256;73411;-86
2023/03/20 02:21:15;;;;;;;;;;;;;;;8.47;73.31;101122.05;107664;1256;125635;-86
2023/03/20 02:23:57;;;;;;;;;;;;;;;8.42;73.40;101118.00;107444;1256;72695;-86
2023/03/20 02:26:30;;;;;;;;;;;;;;;8.36;73.46;101118.29;107469;1256;59630;-86
2023/03/20 02:29:11;;;;;;;;;;;;;;;8.31;73.47;101119.13;107541;1256;125162;-85
2023/03/20 02:31:42;;;;;;;;;;;;;;;8.27;73.53;101117.73;107571;1255;73403;-85
2023/03/20 02:34:21;;;;;;;;;;;;;;;8.24;73.62;101115.33;107304;1256;124636;-85
2023/03/20 02:37:07;;;;;;;;;;;;;;;8.23;73.79;101112.67;107444;1255;72429;-86
2023/03/20 02:39:34;;;;;;;;;;;;;;;8.24;73.85;101111.98;108071;1255;125327;-85
2023/03/20 02:42:13;;;;;;;;;;;;;;;8.22;73.87;101107.59;107628;1256;59938;-86
2023/03/20 02:44:40;;;;;;;;;;;;;;;8.18;73.86;101107.77;107606;1256;72733;-86
2023/03/20 02:47:17;;;;;;;;;;;;;;;8.16;73.96;101104.04;107574;1259;124652;-85
2023/03/20 02:49:48;;;;;;;;;;;;;;;8.16;74.07;101102.83;107488;1255;72797;-86
2023/03/20 02:52:18;;;;;;;;;;;;;;;8.17;74.22;101099.14;107499;1255;124613;-86
2023/03/20 02:54:45;;;;;;;;;;;;;;;8.17;74.22;101096.91;107652;1255;60127;-85
2023/03/20 02:57:13;;;;;;;;;;;;;;;8.19;74.25;101093.99;107316;1260;124917;-85
2023/03/20 02:59:45;;;;;;;;;;;;;;;8.22;74.36;101091.65;107382;1256;66648;-85
2023/03/20 03:02:14;;;;;;;;;;;;;;;8.26;74.50;101087.45;107458;1256;71389;-85
2023/03/20 03:04:46;;;;;;;;;;;;;;;8.28;74.44;101085.61;107606;1256;124688;-85
2023/03/20 03:07:13;;;;;;;;;;;;;;;8.28;74.51;101084.23;107584;1256;61138;-85
2023/03/20 03:09:41;;;;;;;;;;;;;;;8.27;74.44;101079.79;107478;1258;124739;-86
2023/03/20 03:12:13;;;;;;;;;;;;;;;8.27;74.47;101078.41;107646;1256;65307;-86
2023/03/20 03:14:43;;;;;;;;;;;;;;;8.29;74.59;101076.36;107747;1256;71435;-86
2023/03/20 03:17:10;;;;;;;;;;;;;;;8.29;74.57;101075.48;107577;1255;124969;-87
2023/03/20 03:19:37;;;;;;;;;;;;;;;8.29;74.54;101077.08;107791;1256;61280;-87
2023/03/20 03:22:04;;;;;;;;;;;;;;;8.29;74.63;101074.80;107583;1257;125121;-86
2023/03/20 03:24:32;;;;;;;;;;;;;;;8.34;74.94;101077.26;108933;1255;66833;-86
2023/03/20 03:27:02;;;;;;;;;;;;;;;8.40;74.92;101076.80;108895;1256;124739;-85
2023/03/20 03:29:30;;;;;;;;;;;;;;;8.45;74.78;101072.12;108949;1256;59352;-86
2023/03/20 03:31:57;;;;;;;;;;;;;;;8.46;74.73;101071.50;109094;1256;59003;-85
2023/03/20 03:34:25;;;;;;;;;;;;;;;8.47;74.76;101074.14;107820;1258;124777;-85
2023/03/20 03:37:03;;;;;;;;;;;;;;;8.46;74.67;101074.27;107493;1256;65429;-86
2023/03/20 03:39:43;;;;;;;;;;;;;;;8.45;74.74;101075.29;107449;1255;125329;-85
2023/03/20 03:42:22;;;;;;;;;;;;;;;8.46;74.74;101074.98;107717;1256;59863;-85
2023/03/20 03:44:49;;;;;;;;;;;;;;;8.47;74.79;101072.56;107931;1255;61255;-87
2023/03/20 03:47:24;;;;;;;;;;;;;;;8.47;74.88;101066.79;108009;1255;73378;-85
2023/03/20 03:49:54;;;;;;;;;;;;;;;8.49;74.80;101063.17;108001;1257;66737;-80
2023/03/20 03:52:22;;;;;;;;;;;;;;;8.49;74.84;101066.36;107651;1257;124555;-80
2023/03/20 03:55:04;;;;;;;;;;;;;;;8.49;74.90;101061.80;107527;1262;61244;-85
2023/03/20 03:57:43;;;;;;;;;;;;;;;8.50;74.90;101055.86;107187;1254;125007;-84
2023/03/20 04:00:13;;;;;;;;;;;;;;;8.51;74.93;101054.36;107934;1254;73028;-85
2023/03/20 04:02:41;;;;;;;;;;;;;;;8.51;75.00;101053.48;107625;1259;67078;-80
2023/03/20 04:05:08;;;;;;;;;;;;;;;8.52;74.98;101054.73;107506;1254;124756;-85
2023/03/20 04:07:35;;;;;;;;;;;;;;;8.54;75.03;101056.91;107452;1254;60421;-86
2023/03/20 04:10:03;;;;;;;;;;;;;;;8.54;75.01;101053.60;107498;1253;124737;-80
2023/03/20 04:12:37;;;;;;;;;;;;;;;8.54;75.06;101049.58;107816;1254;73368;-80
2023/03/20 04:15:06;;;;;;;;;;;;;;;8.55;75.17;101042.80;107797;1254;126265;-86
2023/03/20 04:17:33;;;;;;;;;;;;;;;8.57;75.10;101040.58;107615;1254;73213;-86
2023/03/20 04:20:02;;;;;;;;;;;;;;;8.57;75.10;101041.61;107361;1259;61232;-84
2023/03/20 04:22:30;;;;;;;;;;;;;;;8.59;75.14;101046.95;107793;1253;124767;-80
2023/03/20 04:24:57;;;;;;;;;;;;;;;8.59;75.30;101044.15;107794;1253;72762;-80
2023/03/20 04:27:24;;;;;;;;;;;;;;;8.59;75.20;101040.11;107795;1253;125925;-80
2023/03/20 04:29:51;;;;;;;;;;;;;;;8.61;75.23;101042.66;107729;1254;72739;-80
2023/03/20 04:32:18;;;;;;;;;;;;;;;8.65;75.30;101045.77;108008;1253;61324;-80
2023/03/20 04:34:45;;;;;;;;;;;;;;;8.67;75.31;101049.73;107924;1253;125520;-80
2023/03/20 04:37:13;;;;;;;;;;;;;;;8.68;75.22;101045.71;107520;1253;73083;-84
2023/03/20 04:39:41;;;;;;;;;;;;;;;8.68;75.22;101045.38;107085;1254;124810;-84
2023/03/20 04:42:33;;;;;;;;;;;;;;;8.69;75.29;101048.05;107119;1254;71197;-84
2023/03/20 04:45:19;;;;;;;;;;;;;;;8.71;75.17;101046.35;107087;1253;124980;-82
2023/03/20 04:47:47;;;;;;;;;;;;;;;8.71;75.20;101052.84;107420;1253;60341;-84
2023/03/20 04:50:16;;;;;;;;;;;;;;;8.70;75.22;101056.66;107469;1256;73133;-84
2023/03/20 04:52:50;;;;;;;;;;;;;;;8.70;75.28;101054.35;107294;1253;123884;-84
2023/03/20 04:55:17;;;;;;;;;;;;;;;8.71;75.29;101052.33;107560;1254;72654;-86
2023/03/20 04:57:44;;;;;;;;;;;;;;;8.73;75.31;101054.82;107267;1253;124118;-82
2023/03/20 05:00:12;;;;;;;;;;;;;;;8.73;75.33;101053.26;107742;1254;61243;-81
2023/03/20 05:02:39;;;;;;;;;;;;;;;8.74;75.36;101048.73;107589;1261;74678;-87
2023/03/20 05:05:08;;;;;;;;;;;;;;;8.73;75.42;101044.33;107627;1253;123766;-82
2023/03/20 05:07:35;;;;;;;;;;;;;;;8.74;75.44;101039.98;107626;1253;71392;-83
2023/03/20 05:10:02;;;;;;;;;;;;;;;8.74;75.45;101040.00;107726;1253;123939;-82
2023/03/20 05:12:30;;;;;;;;;;;;;;;8.74;75.45;101033.34;108078;1254;60161;-82
2023/03/20 05:15:03;;;;;;;;;;;;;;;8.74;75.47;101029.14;107930;1259;124209;-83
2023/03/20 05:17:31;;;;;;;;;;;;;;;8.75;75.54;101027.10;107988;1258;65104;-82
2023/03/20 05:19:58;;;;;;;;;;;;;;;8.75;75.44;101030.07;107953;1253;71424;-82
2023/03/20 05:22:31;;;;;;;;;;;;;;;8.75;75.53;101031.45;107477;1254;124261;-85
2023/03/20 05:25:00;;;;;;;;;;;;;;;8.76;75.60;101033.92;107483;1253;59298;-85
2023/03/20 05:27:27;;;;;;;;;;;;;;;8.76;75.63;101030.95;107448;1253;124321;-85
2023/03/20 05:29:54;;;;;;;;;;;;;;;8.75;75.64;101029.19;107794;1254;65802;-85
2023/03/20 05:32:21;;;;;;;;;;;;;;;8.77;75.66;101032.74;107953;1253;72825;-84
2023/03/20 05:34:48;;;;;;;;;;;;;;;8.79;75.77;101031.78;107563;1253;123922;-85
2023/03/20 05:37:14;;;;;;;;;;;;;;;8.84;75.87;101037.36;107709;1253;59320;-83
2023/03/20 05:39:42;;;;;;;;;;;;;;;8.86;75.80;101034.11;107554;1258;124285;-81
2023/03/20 05:42:09;;;;;;;;;;;;;;;8.89;75.83;101034.05;107721;1253;67106;-81
2023/03/20 05:44:36;;;;;;;;;;;;;;;8.92;75.86;101031.89;107769;1260;72723;-81
2023/03/20 05:47:03;;;;;;;;;;;;;;;8.94;75.81;101033.02;107669;1253;124616;-82
2023/03/20 05:49:30;;;;;;;;;;;;;;;8.95;75.85;101033.21;107847;1253;60144;-82
2023/03/20 05:51:57;;;;;;;;;;;;;;;8.97;75.85;101031.91;107694;1253;124088;-83
2023/03/20 05:54:24;;;;;;;;;;;;;;;9.02;75.96;101034.16;107642;1258;67054;-84
2023/03/20 05:56:51;;;;;;;;;;;;;;;9.07;75.94;101033.82;107493;1254;124117;-86
2023/03/20 05:59:18;;;;;;;;;;;;;;;9.11;75.94;101040.83;107690;1254;60771;-87
2023/03/20 06:01:45;;;;;;;;;;;;;;;9.16;75.97;101036.27;107475;1260;60534;-86
2023/03/20 06:04:12;;;;;;;;;;;;;;;9.23;76.01;101033.52;107625;1254;124879;-88
2023/03/20 06:06:45;;;;;;;;;;;;;;;9.32;76.09;101037.17;107869;1253;67088;-84
2023/03/20 06:09:12;;;;;;;;;;;;;;;9.41;76.08;101035.71;107561;1253;125107;-83
2023/03/20 06:11:39;;;;;;;;;;;;;;;9.51;76.12;101037.80;107760;1253;61289;-86
2023/03/20 06:14:09;;;;;;;;;;;;;;;9.57;75.99;101035.55;107643;1255;61254;-84
2023/03/20 06:16:36;;;;;;;;;;;;;;;9.64;75.99;101036.84;107663;1253;124748;-86
2023/03/20 06:19:04;;;;;;;;;;;;;;;9.72;75.95;101034.85;107793;1254;65992;-88
2023/03/20 06:21:31;;;;;;;;;;;;;;;9.81;75.96;101032.13;107532;1254;125164;-85
2023/03/20 06:23:58;;;;;;;;;;;;;;;9.90;75.97;101029.13;107518;1256;59954;-86
2023/03/20 06:26:29;;;;;;;;;;;;;;;10.01;75.91;101028.57;107730;1253;60350;-80
2023/03/20 06:28:56;;;;;;;;;;;;;;;10.08;75.80;101027.77;107655;1253;124953;-80
2023/03/20 06:31:23;;;;;;;;;;;;;;;10.16;75.75;101027.63;107949;1254;67030;-79
2023/03/20 06:33:51;;;;;;;;;;;;;;;10.23;75.79;101031.37;108811;1254;125377;-78
2023/03/20 06:36:18;;;;;;;;;;;;;;;10.31;75.85;101031.98;109154;1253;59020;-79
2023/03/20 06:38:45;;;;;;;;;;;;;;;10.40;75.73;101036.12;109185;1254;60387;-80
2023/03/20 06:41:12;;;;;;;;;;;;;;;10.45;75.64;101035.22;109043;1253;125313;-79
2023/03/20 06:43:41;;;;;;;;;;;;;;;10.48;75.54;101035.52;109127;1254;65861;-80
2023/03/20 06:46:08;;;;;;;;;;;;;;;10.56;75.57;101039.58;108785;1257;125621;-79
2023/03/20 06:48:35;;;;;;;;;;;;;;;10.61;75.52;101032.38;109112;1254;59050;-79
2023/03/20 06:51:02;;;;;;;;;;;;;;;10.69;75.45;101030.50;108620;1254;124948;-79
2023/03/20 06:53:29;;;;;;;;;;;;;;;10.79;75.47;101032.86;109124;1253;74177;-82
2023/03/20 06:55:57;;;;;;;;;;;;;;;10.90;75.38;101032.46;109186;1256;65672;-81
2023/03/20 06:58:24;;;;;;;;;;;;;;;11.02;75.37;101029.49;108937;1255;125514;-79
2023/03/20 07:00:52;;;;;;;;;;;;;;;11.15;75.30;101027.39;109102;1254;59388;-78
2023/03/20 07:03:20;;;;;;;;;;;;;;;11.27;75.10;101030.33;108851;1259;125174;-78
2023/03/20 07:05:47;;;;;;;;;;;;;;;11.35;74.92;101025.63;109239;1254;73173;-78
2023/03/20 07:08:17;;;;;;;;;;;;;;;11.46;75.02;101024.50;108999;1254;65721;-79
2023/03/20 07:10:44;;;;;;;;;;;;;;;11.60;74.95;101025.91;109028;1253;125836;-78
2023/03/20 07:13:11;;;;;;;;;;;;;;;11.74;75.00;101028.20;109136;1254;59408;-79
2023/03/20 07:15:38;;;;;;;;;;;;;;;11.86;74.85;101033.92;109097;1254;124377;-79
2023/03/20 07:18:05;;;;;;;;;;;;;;;11.97;74.69;101034.73;109198;1254;73109;-78
2023/03/20 07:20:32;;;;;;;;;;;;;;;12.05;74.65;101034.60;109118;1254;65896;-78
2023/03/20 07:22:59;;;;;;;;;;;;;;;12.15;74.71;101036.41;109071;1254;124486;-79
2023/03/20 07:25:26;;;;;;;;;;;;;;;12.29;74.75;101036.38;109164;1254;59359;-79
2023/03/20 07:27:53;;;;;;;;;;;;;;;12.43;74.76;101032.98;109090;1254;124631;-78
2023/03/20 07:30:20;;;;;;;;;;;;;;;12.56;74.57;101028.70;109227;1253;74662;-79
2023/03/20 07:32:47;;;;;;;;;;;;;;;12.69;74.41;101029.50;109203;1254;65870;-79
2023/03/20 07:35:14;;;;;;;;;;;;;;;12.77;74.10;101030.73;108927;1254;72177;-78
2023/03/20 07:37:41;;;;;;;;;;;;;;;12.84;74.16;101029.98;109120;1258;59106;-78
2023/03/20 07:40:08;;;;;;;;;;;;;;;12.93;73.92;101031.02;109149;1254;124311;-80
2023/03/20 07:42:35;;;;;;;;;;;;;;;13.03;73.94;101034.57;108300;1254;74707;-85
2023/03/20 07:45:02;;;;;;;;;;;;;;;13.10;73.78;101031.20;108195;1254;124732;-84
2023/03/20 07:47:30;;;;;;;;;;;;;;;13.17;73.61;101031.33;108315;1254;71349;-83
2023/03/20 07:49:58;;;;;;;;;;;;;;;13.21;73.46;101023.80;108348;1254;61311;-84
2023/03/20 07:52:25;;;;;;;;;;;;;;;13.24;73.31;101020.19;108329;1254;125043;-85
2023/03/20 07:54:52;;;;;;;;;;;;;;;13.28;73.23;101018.99;108444;1254;74741;-82
2023/03/20 07:57:19;;;;;;;;;;;;;;;13.32;73.12;101025.29;107907;1260;124334;-83
2023/03/20 07:59:46;;;;;;;;;;;;;;;13.34;72.99;101019.50;108709;1260;70977;-86
2023/03/20 08:02:14;;;;;;;;;;;;;;;13.36;72.90;101021.84;108407;1255;61840;-84
2023/03/20 08:04:42;;;;;;;;;;;;;;;13.38;72.63;101019.58;108195;1254;124463;-86
2023/03/20 08:07:09;;;;;;;;;;;;;;;13.41;72.59;101018.58;108125;1259;73582;-83
2023/03/20 08:09:36;;;;;;;;;;;;;;;13.53;72.47;101020.19;107908;1254;125202;-83
2023/03/20 08:12:04;;;;;;;;;;;;;;;13.62;72.19;101021.76;108015;1256;72703;-82
2023/03/20 08:14:31;;;;;;;;;;;;;;;13.70;71.91;101019.23;108135;1259;60532;-83
2023/03/20 08:16:58;;;;;;;;;;;;;;;13.81;71.89;101018.89;107946;1254;125182;-82
2023/03/20 08:19:26;;;;;;;;;;;;;;;13.92;71.64;101017.84;107569;1254;75178;-82
2023/03/20 08:21:53;;;;;;;;;;;;;;;14.06;71.62;101013.45;107926;1258;125101;-78
2023/03/20 08:24:20;;;;;;;;;;;;;;;14.19;71.38;101014.36;107948;1257;71389;-83
2023/03/20 08:26:47;;;;;;;;;;;;;;;14.32;71.11;101017.36;107941;1260;60760;-82
2023/03/20 08:29:17;;;;;;;;;;;;;;;14.46;70.96;101018.96;107709;1254;62042;-83
2023/03/20 08:31:45;;;;;;;;;;;;;;;14.59;70.66;101015.99;107595;1256;75838;-79
2023/03/20 08:34:11;;;;;;;;;;;;;;;14.71;70.56;101016.31;107523;1259;125206;-79
2023/03/20 08:36:38;;;;;;;;;;;;;;;14.85;70.37;101015.60;107500;1259;70083;-79
2023/03/20 08:39:08;;;;;;;;;;;;;;;14.97;70.17;101015.92;107460;1263;125042;-79
2023/03/20 08:41:36;;;;;;;;;;;;;;;15.04;70.06;101014.39;108172;1255;60282;-79
2023/03/20 08:44:04;;;;;;;;;;;;;;;15.10;69.95;101014.12;108172;1259;75210;-79
2023/03/20 08:46:31;;;;;;;;;;;;;;;15.17;69.76;101016.13;107753;1260;125483;-78
2023/03/20 08:48:59;;;;;;;;;;;;;;;15.20;69.55;101017.04;107842;1258;70635;-79
2023/03/20 08:51:26;;;;;;;;;;;;;;;15.23;69.48;101014.23;107455;1260;125726;-79
2023/03/20 08:53:53;;;;;;;;;;;;;;;15.34;69.48;101009.23;107746;1254;60962;-79
2023/03/20 08:56:20;;;;;;;;;;;;;;;15.47;69.34;101006.86;107918;1254;73790;-79
2023/03/20 08:58:47;;;;;;;;;;;;;;;15.57;69.14;101008.73;107613;1259;125704;-79
2023/03/20 09:01:14;;;;;;;;;;;;;;;15.61;68.87;101005.39;107875;1257;72813;-79
2023/03/20 09:03:41;;;;;;;;;;;;;;;15.58;68.71;101005.72;107813;1260;124455;-80
2023/03/20 09:06:08;;;;;;;;;;;;;;;15.47;68.38;101005.45;108119;1253;59320;-78
2023/03/20 09:08:35;;;;;;;;;;;;;;;15.33;68.40;101006.03;107891;1254;74480;-78
2023/03/20 09:11:02;;;;;;;;;;;;;;;15.16;68.26;101006.92;107772;1260;124761;-78
2023/03/20 09:13:29;;;;;;;;;;;;;;;14.99;68.30;101006.54;107497;1254;71427;-78
2023/03/20 09:15:57;;;;;;;;;;;;;;;14.84;68.55;101007.45;107481;1254;125667;-78
2023/03/20 09:18:24;;;;;;;;;;;;;;;14.73;68.79;101006.45;107832;1258;59984;-78
2023/03/20 09:20:50;;;;;;;;;;;;;;;14.66;68.93;101004.75;107867;1256;124535;-78
2023/03/20 09:23:18;;;;;;;;;;;;;;;14.61;68.99;101005.07;107954;1254;66752;-78
2023/03/20 09:25:45;;;;;;;;;;;;;;;14.62;69.20;101006.14;108056;1260;72733;-78
2023/03/20 09:28:12;;;;;;;;;;;;;;;14.66;69.37;101005.31;107643;1253;124677;-78
2023/03/20 09:30:42;;;;;;;;;;;;;;;14.69;69.47;101006.75;107866;1254;61237;-78
2023/03/20 09:33:09;;;;;;;;;;;;;;;14.72;69.38;101003.43;108979;1254;124653;-78
2023/03/20 09:35:36;;;;;;;;;;;;;;;14.75;69.56;101001.52;108923;1254;64861;-81
2023/03/20 09:38:03;;;;;;;;;;;;;;;14.75;69.29;101003.28;108995;1254;72689;-78
2023/03/20 09:40:47;;;;;;;;;;;;;;;14.76;69.18;101002.24;108903;1254;221413;-80
2023/03/20 09:43:26;;;;;;;;;;;;;;;14.80;69.02;101004.77;109098;1253;59992;-80
2023/03/20 09:45:53;;;;;;;;;;;;;;;14.85;68.59;101003.04;109185;1253;125118;-80
2023/03/20 09:48:27;;;;;;;;;;;;;;;14.87;68.03;101012.26;109149;1254;65631;-80
2023/03/20 09:50:57;;;;;;;;;;;;;;;14.81;67.79;101011.14;108914;1257;125456;-79
2023/03/20 09:53:29;;;;;;;;;;;;;;;14.82;67.99;101013.80;108943;1259;59373;-80
2023/03/20 09:56:00;;;;;;;;;;;;;;;14.93;67.87;101021.52;109169;1254;59884;-80
2023/03/20 09:58:34;;;;;;;;;;;;;;;15.05;67.59;101028.02;109076;1255;124148;-80
2023/03/20 10:01:02;;;;;;;;;;;;;;;15.15;67.27;101028.30;108880;1254;65604;-80
2023/03/20 10:03:37;;;;;;;;;;;;;;;15.28;67.18;101026.85;108854;1254;124996;-81
2023/03/20 10:06:05;;;;;;;;;;;;;;;15.54;67.15;101030.45;107532;1254;60176;-79
2023/03/20 10:08:32;;;;;;;;;;;;;;;15.77;66.72;101025.73;107502;1253;59583;-79
2023/03/20 10:11:02;;;;;;;;;;;;;;;15.87;66.23;101030.23;107591;1260;124122;-79
2023/03/20 10:13:34;;;;;;;;;;;;;;;15.91;66.03;101028.84;107964;1253;67062;-79
2023/03/20 10:16:05;;;;;;;;;;;;;;;16.00;65.80;101030.86;107728;1259;124594;-79
2023/03/20 10:18:33;;;;;;;;;;;;;;;16.10;65.76;101025.98;107734;1254;61353;-79
2023/03/20 10:21:22;;;;;;;;;;;;;;;16.29;65.58;101031.22;107581;1254;124883;-78
2023/03/20 10:23:58;;;;;;;;;;;;;;;16.39;65.05;101036.23;107743;1254;74742;-78
2023/03/20 10:26:25;;;;;;;;;;;;;;;16.43;64.72;101039.29;107945;1254;68053;-78
2023/03/20 10:29:01;;;;;;;;;;;;;;;16.46;64.34;101038.95;107785;1254;124850;-78
2023/03/20 10:31:47;;;;;;;;;;;;;;;16.55;64.11;101044.48;107923;1254;61381;-83
2023/03/20 10:34:28;;;;;;;;;;;;;;;16.36;63.01;101044.02;107903;1254;124327;-83
2023/03/20 10:37:02;;;;;;;;;;;;;;;15.95;62.82;101049.75;107698;1252;75176;-84
2023/03/20 10:39:29;;;;;;;;;;;;;;;15.67;63.12;101048.25;108917;1254;124386;-78
2023/03/20 10:41:57;;;;;;;;;;;;;;;15.56;63.51;101049.04;109106;1254;71396;-78
2023/03/20 10:44:28;;;;;;;;;;;;;;;15.63;63.74;101053.88;109003;1254;59274;-78
2023/03/20 10:46:55;;;;;;;;;;;;;;;15.64;63.13;101056.90;108963;1257;124362;-79
2023/03/20 10:49:36;;;;;;;;;;;;;;;15.61;63.15;101061.82;109109;1254;74713;-79
2023/03/20 10:52:04;;;;;;;;;;;;;;;15.60;63.19;101062.16;108785;1253;124328;-78
2023/03/20 10:54:33;;;;;;;;;;;;;;;15.68;63.37;101059.41;109009;1253;70420;-79
2023/03/20 10:57:00;;;;;;;;;;;;;;;15.76;62.88;101065.18;108921;1254;124461;-79
2023/03/20 10:59:27;;;;;;;;;;;;;;;15.70;62.62;101063.69;109090;1253;60119;-79
2023/03/20 11:01:54;;;;;;;;;;;;;;;15.77;62.77;101065.90;109187;1254;73394;-79
2023/03/20 11:04:21;;;;;;;;;;;;;;;15.90;62.69;101063.53;108907;1254;124394;-79
2023/03/20 11:06:52;;;;;;;;;;;;;;;16.04;62.64;101063.98;109086;1254;71193;-79
2023/03/20 11:09:20;;;;;;;;;;;;;;;16.15;62.37;101059.99;108821;1254;124720;-79
2023/03/20 11:11:47;;;;;;;;;;;;;;;16.22;62.20;101057.39;109005;1259;60654;-79
2023/03/20 11:14:18;;;;;;;;;;;;;;;16.26;61.95;101057.77;108989;1254;72055;-79
2023/03/20 11:16:48;;;;;;;;;;;;;;;16.29;61.81;101056.55;108869;1254;124928;-79
2023/03/20 11:19:16;;;;;;;;;;;;;;;16.33;61.62;101056.93;109117;1254;72390;-79
2023/03/20 11:21:44;;;;;;;;;;;;;;;16.36;61.67;101058.71;108784;1254;124693;-79
2023/03/20 11:24:34;;;;;;;;;;;;;;;16.39;61.47;101058.21;109042;1254;59334;-79
2023/03/20 11:27:05;;;;;;;;;;;;;;;16.39;61.14;101059.80;108911;1254;124736;-79
2023/03/20 11:29:34;;;;;;;;;;;;;;;16.39;60.88;101057.14;108987;1254;65488;-79
2023/03/20 11:32:12;;;;;;;;;;;;;;;16.37;60.72;101057.48;108982;1254;73232;-79
2023/03/20 11:34:42;;;;;;;;;;;;;;;16.42;60.68;101057.15;108928;1254;124646;-80
2023/03/20 11:37:25;;;;;;;;;;;;;;;16.46;60.30;101055.95;109127;1254;59849;-80
2023/03/20 11:39:53;;;;;;;;;;;;;;;16.52;60.29;101054.38;108574;1254;124331;-80
2023/03/20 11:42:21;;;;;;;;;;;;;;;16.52;60.23;101052.44;107894;1257;66904;-80
2023/03/20 11:44:55;;;;;;;;;;;;;;;16.51;60.08;101046.77;107958;1254;71301;-80
2023/03/20 11:47:23;;;;;;;;;;;;;;;16.43;59.95;101043.36;108196;1253;59679;-79
2023/03/20 11:49:54;;;;;;;;;;;;;;;16.33;59.81;101045.59;107906;1254;61707;-79
2023/03/20 11:52:31;;;;;;;;;;;;;;;16.18;59.41;101048.16;107795;1254;124933;-80
2023/03/20 11:54:59;;;;;;;;;;;;;;;15.87;59.16;101052.17;108068;1254;65817;-79
2023/03/20 11:57:34;;;;;;;;;;;;;;;15.66;59.53;101049.48;108138;1254;125381;-78
2023/03/20 12:00:05;;;;;;;;;;;;;;;15.62;59.77;101051.75;108232;1254;61385;-78
2023/03/20 12:02:32;;;;;;;;;;;;;;;15.66;60.08;101053.20;107993;1254;59750;-78
2023/03/20 12:04:59;;;;;;;;;;;;;;;15.82;60.29;101049.30;108837;1254;124387;-78
2023/03/20 12:07:28;;;;;;;;;;;;;;;16.04;60.38;101050.19;109024;1253;65583;-78
2023/03/20 12:10:11;;;;;;;;;;;;;;;16.08;59.76;101049.51;108804;1254;124478;-79
2023/03/20 12:12:58;;;;;;;;;;;;;;;16.02;59.66;101049.81;108924;1254;59230;-78
2023/03/20 12:15:33;;;;;;;;;;;;;;;15.99;59.24;101054.05;108882;1254;125121;-78
2023/03/20 12:18:09;;;;;;;;;;;;;;;15.80;58.83;101057.23;109076;1254;73360;-79
2023/03/20 12:21:00;;;;;;;;;;;;;;;15.62;59.00;101056.00;108158;1254;67065;-79
2023/03/20 12:23:56;;;;;;;;;;;;;;;15.55;59.19;101061.59;108895;1254;72404;-79
2023/03/20 12:26:24;;;;;;;;;;;;;;;15.56;59.36;101056.64;108568;1254;61308;-84
2023/03/20 12:29:00;;;;;;;;;;;;;;;15.63;59.44;101057.42;107634;1254;124384;-84
2023/03/20 12:31:46;;;;;;;;;;;;;;;15.68;59.32;101064.72;107694;1254;73122;-82
2023/03/20 12:34:28;;;;;;;;;;;;;;;15.66;59.29;101059.56;107798;1254;124820;-83
2023/03/20 12:36:58;;;;;;;;;;;;;;;15.55;59.17;101056.64;107963;1254;72924;-78
2023/03/20 12:39:28;;;;;;;;;;;;;;;15.43;59.27;101056.16;108083;1254;125158;-83
2023/03/20 12:42:21;;;;;;;;;;;;;;;15.41;59.48;101053.85;107744;1257;61091;-83